createdAt,value
2023-03-11T00:00:06.379Z,2.4
2023-03-11T00:01:06.630Z,2.4
2023-03-11T00:02:06.217Z,2.4
2023-03-11T00:03:05.987Z,2.4
2023-03-11T00:04:06.286Z,2.4
2023-03-11T00:05:06.554Z,2.4
2023-03-11T00:06:06.108Z,2.4
2023-03-11T00:07:06.136Z,2.4
2023-03-11T00:08:06.299Z,2.4
2023-03-11T00:09:06.520Z,2.4
2023-03-11T00:10:05.704Z,2.4
2023-03-11T00:11:06.249Z,2.4
2023-03-11T00:12:06.489Z,2.4
2023-03-11T00:13:06.104Z,2.4
2023-03-11T00:14:05.919Z,2.4
2023-03-11T00:15:06.192Z,2.4
2023-03-11T00:16:06.540Z,2.4
2023-03-11T00:17:06.812Z,2.4
2023-03-11T00:18:06.043Z,2.4
2023-03-11T00:19:06.196Z,2.4
2023-03-11T00:20:06.689Z,2
2023-03-11T00:21:05.942Z,2.4
2023-03-11T00:22:05.992Z,2.4
2023-03-11T00:23:06.414Z,2.4
2023-03-11T00:24:06.741Z,2.4
2023-03-11T00:25:06.112Z,2.4
2023-03-11T00:26:06.202Z,2.4
2023-03-11T00:27:06.377Z,2
2023-03-11T00:28:06.742Z,2.4
2023-03-11T00:29:06.900Z,2.4
2023-03-11T00:30:06.225Z,2.4
2023-03-11T00:31:06.397Z,2.4
2023-03-11T00:32:06.549Z,2.4
2023-03-11T00:33:06.111Z,2.4
2023-03-11T00:34:06.289Z,2.4
2023-03-11T00:35:06.491Z,2.3
2023-03-11T00:36:06.031Z,2.3
2023-03-11T00:37:05.743Z,2.3
2023-03-11T00:38:06.052Z,2.3
2023-03-11T00:39:06.405Z,2.3
2023-03-11T00:40:06.947Z,2.3
2023-03-11T00:41:06.156Z,2.3
2023-03-11T00:42:06.422Z,2
2023-03-11T00:43:06.538Z,2.3
2023-03-11T00:44:06.861Z,2.3
2023-03-11T00:45:05.792Z,2
2023-03-11T00:46:06.559Z,2.3
2023-03-11T00:47:06.632Z,2.3
2023-03-11T00:48:05.979Z,2.2
2023-03-11T00:49:06.283Z,2.2
2023-03-11T00:50:06.594Z,2.2
2023-03-11T00:51:05.885Z,2.2
2023-03-11T00:52:06.071Z,2.2
2023-03-11T00:53:06.491Z,2.2
2023-03-11T00:54:05.701Z,2.2
2023-03-11T00:55:06.126Z,2
2023-03-11T00:56:06.147Z,2.2
2023-03-11T00:57:05.427Z,2
2023-03-11T00:58:06.087Z,2.2
2023-03-11T00:59:06.508Z,2.2
2023-03-11T01:00:06.495Z,2.2
2023-03-11T01:01:06.565Z,2.2
2023-03-11T01:02:05.829Z,2.2
2023-03-11T01:03:06.236Z,2.2
2023-03-11T01:04:06.407Z,2.1
2023-03-11T01:05:06.517Z,2.1
2023-03-11T01:06:06.246Z,2
2023-03-11T01:07:06.512Z,2.1
2023-03-11T01:08:06.629Z,2
2023-03-11T01:09:05.976Z,2.1
2023-03-11T01:10:06.197Z,2
2023-03-11T01:11:06.503Z,2.1
2023-03-11T01:12:05.814Z,2.1
2023-03-11T01:13:06.140Z,2.1
2023-03-11T01:14:06.340Z,2.1
2023-03-11T01:15:06.626Z,2.1
2023-03-11T01:16:06.001Z,2.1
2023-03-11T01:17:06.118Z,2.1
2023-03-11T01:18:06.508Z,2
2023-03-11T01:19:06.498Z,2
2023-03-11T01:20:05.989Z,2
2023-03-11T01:21:05.949Z,2
2023-03-11T01:22:06.271Z,2.1
2023-03-11T01:23:06.544Z,2
2023-03-11T01:24:05.909Z,2
2023-03-11T01:25:06.112Z,2.1
2023-03-11T01:26:06.323Z,2
2023-03-11T01:27:06.665Z,2
2023-03-11T01:28:05.953Z,2
2023-03-11T01:29:06.239Z,2
2023-03-11T01:30:06.422Z,2
2023-03-11T01:31:06.622Z,2
2023-03-11T01:32:05.917Z,2
2023-03-11T01:33:06.139Z,2
2023-03-11T01:34:06.405Z,2
2023-03-11T01:35:06.839Z,2
2023-03-11T01:36:06.160Z,2
2023-03-11T01:37:06.121Z,2
2023-03-11T01:38:06.531Z,2
2023-03-11T01:39:06.686Z,2
2023-03-11T01:40:05.822Z,2.1
2023-03-11T01:41:06.302Z,2.1
2023-03-11T01:42:06.367Z,2
2023-03-11T01:43:06.785Z,2.1
2023-03-11T01:44:05.742Z,2
2023-03-11T01:45:06.025Z,2.1
2023-03-11T01:46:06.812Z,2
2023-03-11T01:47:06.782Z,2.1
2023-03-11T01:48:06.065Z,2.1
2023-03-11T01:49:06.250Z,2.1
2023-03-11T01:50:06.402Z,2.1
2023-03-11T01:51:06.234Z,2.1
2023-03-11T01:52:06.565Z,2.1
2023-03-11T01:53:06.101Z,2
2023-03-11T01:54:06.258Z,2.1
2023-03-11T01:55:06.490Z,2.1
2023-03-11T01:56:05.815Z,2
2023-03-11T01:57:06.023Z,2.1
2023-03-11T01:58:06.207Z,2.1
2023-03-11T01:59:06.216Z,2
2023-03-11T02:00:05.675Z,2
2023-03-11T02:01:06.154Z,2.1
2023-03-11T02:02:06.705Z,2
2023-03-11T02:03:06.828Z,2.1
2023-03-11T02:04:06.022Z,2.1
2023-03-11T02:05:06.300Z,2.1
2023-03-11T02:06:06.075Z,2
2023-03-11T02:07:06.267Z,2
2023-03-11T02:08:06.486Z,2
2023-03-11T02:09:05.811Z,2
2023-03-11T02:10:06.128Z,2
2023-03-11T02:11:06.387Z,2
2023-03-11T02:12:06.828Z,2
2023-03-11T02:13:06.023Z,2
2023-03-11T02:14:06.183Z,2
2023-03-11T02:15:06.191Z,2
2023-03-11T02:16:06.408Z,2
2023-03-11T02:17:06.414Z,2
2023-03-11T02:18:06.341Z,2
2023-03-11T02:19:06.377Z,2
2023-03-11T02:20:06.362Z,2
2023-03-11T02:21:06.475Z,2
2023-03-11T02:22:06.771Z,2
2023-03-11T02:23:06.078Z,2
2023-03-11T02:24:06.501Z,2
2023-03-11T02:25:06.752Z,2
2023-03-11T02:26:06.081Z,2
2023-03-11T02:27:06.206Z,2
2023-03-11T02:28:06.097Z,2
2023-03-11T02:29:06.555Z,2
2023-03-11T02:30:05.931Z,2
2023-03-11T02:31:06.479Z,2
2023-03-11T02:32:06.527Z,2
2023-03-11T02:33:05.898Z,2
2023-03-11T02:34:06.243Z,2
2023-03-11T02:35:06.445Z,2
2023-03-11T02:36:06.601Z,2
2023-03-11T02:37:06.753Z,1.9
2023-03-11T02:38:06.022Z,1.9
2023-03-11T02:39:06.398Z,1.9
2023-03-11T02:40:06.769Z,2
2023-03-11T02:41:06.372Z,1.8
2023-03-11T02:42:06.133Z,2
2023-03-11T02:43:06.604Z,1.8
2023-03-11T02:44:06.615Z,1.8
2023-03-11T02:45:06.059Z,1.8
2023-03-11T02:46:06.420Z,1.8
2023-03-11T02:47:06.969Z,1.8
2023-03-11T02:48:06.088Z,1.8
2023-03-11T02:49:06.413Z,1.8
2023-03-11T02:50:07.022Z,1.8
2023-03-11T02:51:06.196Z,1.8
2023-03-11T02:52:05.796Z,1.8
2023-03-11T02:53:06.177Z,1.8
2023-03-11T02:54:06.320Z,1.8
2023-03-11T02:55:06.270Z,2
2023-03-11T02:56:05.927Z,1.8
2023-03-11T02:57:06.088Z,1.8
2023-03-11T02:58:06.421Z,1.8
2023-03-11T02:59:06.681Z,1.8
2023-03-11T03:00:06.057Z,1.8
2023-03-11T03:01:06.161Z,1.8
2023-03-11T03:02:06.789Z,1.8
2023-03-11T03:03:05.975Z,2
2023-03-11T03:04:06.442Z,2
2023-03-11T03:05:06.474Z,2
2023-03-11T03:07:06.039Z,1.8
2023-03-11T03:08:06.338Z,2
2023-03-11T03:09:06.656Z,1.8
2023-03-11T03:10:06.617Z,1.8
2023-03-11T03:11:06.191Z,1.8
2023-03-11T03:12:06.897Z,1.8
2023-03-11T03:13:06.177Z,1.9
2023-03-11T03:14:06.442Z,1.8
2023-03-11T03:15:06.580Z,1.8
2023-03-11T03:16:06.907Z,1.8
2023-03-11T03:17:06.180Z,1.8
2023-03-11T03:18:06.427Z,2
2023-03-11T03:19:06.403Z,1.8
2023-03-11T03:20:06.707Z,1.9
2023-03-11T03:21:05.923Z,1.9
2023-03-11T03:22:06.128Z,1.9
2023-03-11T03:23:06.522Z,1.9
2023-03-11T03:24:06.588Z,1.9
2023-03-11T03:25:06.146Z,1.9
2023-03-11T03:26:06.189Z,1.8
2023-03-11T03:27:06.571Z,2
2023-03-11T03:28:05.787Z,1.7
2023-03-11T03:29:06.030Z,1.6
2023-03-11T03:30:06.636Z,1.6
2023-03-11T03:31:06.038Z,1.5
2023-03-11T03:32:06.381Z,1.4
2023-03-11T03:33:06.673Z,1.4
2023-03-11T03:34:05.908Z,1.4
2023-03-11T03:35:06.102Z,1.3
2023-03-11T03:36:06.604Z,1.3
2023-03-11T03:37:06.569Z,1.2
2023-03-11T03:38:05.653Z,1.2
2023-03-11T03:39:06.115Z,0
2023-03-11T03:40:06.492Z,1.2
2023-03-11T03:41:06.438Z,1.2
2023-03-11T03:42:06.569Z,0
2023-03-11T03:43:05.729Z,0
2023-03-11T03:44:06.214Z,1.2
2023-03-11T03:45:06.649Z,1.2
2023-03-11T03:46:06.161Z,1.2
2023-03-11T03:47:06.292Z,1.2
2023-03-11T03:48:06.367Z,1.1
2023-03-11T03:49:06.454Z,1.1
2023-03-11T03:50:06.314Z,0
2023-03-11T03:51:06.558Z,1.1
2023-03-11T03:52:06.558Z,1.1
2023-03-11T03:53:05.865Z,1
2023-03-11T03:54:06.010Z,1
2023-03-11T03:55:06.233Z,1
2023-03-11T03:56:06.847Z,1
2023-03-11T03:57:05.983Z,1
2023-03-11T03:58:06.265Z,1
2023-03-11T03:59:06.518Z,1
2023-03-11T04:00:05.970Z,1
2023-03-11T04:01:06.309Z,1
2023-03-11T04:02:06.474Z,1
2023-03-11T04:03:06.062Z,1
2023-03-11T04:04:06.170Z,1.1
2023-03-11T04:05:06.174Z,1.1
2023-03-11T04:07:06.773Z,1.1
2023-03-11T04:08:06.090Z,1.1
2023-03-11T04:09:06.223Z,1.1
2023-03-11T04:10:06.506Z,1.1
2023-03-11T04:11:05.792Z,1.1
2023-03-11T04:12:06.221Z,1.1
2023-03-11T04:13:06.723Z,1.1
2023-03-11T04:14:06.018Z,1.1
2023-03-11T04:15:06.350Z,1.1
2023-03-11T04:16:06.739Z,1.1
2023-03-11T04:17:06.228Z,1.1
2023-03-11T04:18:06.241Z,1.1
2023-03-11T04:19:05.857Z,1
2023-03-11T04:20:06.199Z,1.1
2023-03-11T04:21:06.629Z,1.1
2023-03-11T04:22:06.114Z,1.1
2023-03-11T04:23:06.106Z,1.1
2023-03-11T04:24:06.321Z,1.1
2023-03-11T04:25:06.851Z,1
2023-03-11T04:26:06.576Z,1
2023-03-11T04:27:05.838Z,1
2023-03-11T04:28:05.931Z,1
2023-03-11T04:29:05.999Z,1
2023-03-11T04:30:06.816Z,1
2023-03-11T04:31:05.975Z,1
2023-03-11T04:32:06.120Z,1
2023-03-11T04:33:06.486Z,1
2023-03-11T04:34:06.513Z,1
2023-03-11T04:35:06.700Z,0.9
2023-03-11T04:36:05.965Z,0.9
2023-03-11T04:37:06.229Z,0.9
2023-03-11T04:38:06.640Z,0.9
2023-03-11T04:39:06.902Z,0.8
2023-03-11T04:40:05.882Z,0.9
2023-03-11T04:41:05.991Z,0.9
2023-03-11T04:42:08.222Z,0.8
2023-03-11T04:43:06.836Z,0.8
2023-03-11T04:44:06.106Z,0.8
2023-03-11T04:45:06.512Z,0.8
2023-03-11T04:46:06.601Z,0.8
2023-03-11T04:47:06.864Z,1
2023-03-11T04:48:06.033Z,0.8
2023-03-11T04:49:06.592Z,0.8
2023-03-11T04:50:06.586Z,0.8
2023-03-11T04:51:06.087Z,0.7
2023-03-11T04:52:05.925Z,0.7
2023-03-11T04:53:06.464Z,0.7
2023-03-11T04:54:05.943Z,0.7
2023-03-11T04:55:06.364Z,0.7
2023-03-11T04:56:06.402Z,0.6
2023-03-11T04:57:06.717Z,0.6
2023-03-11T04:58:05.738Z,0.6
2023-03-11T04:59:05.948Z,0.6
2023-03-11T05:00:06.333Z,0.6
2023-03-11T05:01:06.030Z,0.6
2023-03-11T05:02:06.245Z,0.6
2023-03-11T05:03:06.380Z,1
2023-03-11T05:04:06.721Z,1
2023-03-11T05:05:06.373Z,0.5
2023-03-11T05:06:06.281Z,0.5
2023-03-11T05:07:06.616Z,0.5
2023-03-11T05:08:05.990Z,0.5
2023-03-11T05:09:06.016Z,0.5
2023-03-11T05:10:06.437Z,0.5
2023-03-11T05:11:06.430Z,0.5
2023-03-11T05:12:06.786Z,0.5
2023-03-11T05:13:06.244Z,0
2023-03-11T05:14:06.195Z,0
2023-03-11T05:15:06.540Z,0.4
2023-03-11T05:16:06.731Z,0
2023-03-11T05:17:05.892Z,0.4
2023-03-11T05:18:06.032Z,0.4
2023-03-11T05:19:06.185Z,0.4
2023-03-11T05:20:06.392Z,0.4
2023-03-11T05:21:06.607Z,0.4
2023-03-11T05:22:06.239Z,0.4
2023-03-11T05:23:06.084Z,0
2023-03-11T05:24:06.442Z,0
2023-03-11T05:25:06.292Z,0.3
2023-03-11T05:26:06.167Z,0.3
2023-03-11T05:27:06.431Z,0.3
2023-03-11T05:28:06.702Z,0
2023-03-11T05:29:05.809Z,0.3
2023-03-11T05:30:06.364Z,0.3
2023-03-11T05:31:06.809Z,0.3
2023-03-11T05:32:06.461Z,0.2
2023-03-11T05:33:06.141Z,0.3
2023-03-11T05:34:06.507Z,0.3
2023-03-11T05:35:06.916Z,0.3
2023-03-11T05:36:06.317Z,0.3
2023-03-11T05:37:07.513Z,0.3
2023-03-11T05:38:06.590Z,0.3
2023-03-11T05:39:05.944Z,0.2
2023-03-11T05:40:06.081Z,0.3
2023-03-11T05:41:06.464Z,0.2
2023-03-11T05:42:06.825Z,0.2
2023-03-11T05:43:05.795Z,0.3
2023-03-11T05:44:06.014Z,0.2
2023-03-11T05:45:06.220Z,0.2
2023-03-11T05:46:06.924Z,0.2
2023-03-11T05:47:06.217Z,0.2
2023-03-11T05:48:06.568Z,0.2
2023-03-11T05:49:06.793Z,0
2023-03-11T05:50:06.016Z,0
2023-03-11T05:51:06.356Z,0.2
2023-03-11T05:52:06.620Z,0.2
2023-03-11T05:53:05.827Z,0.2
2023-03-11T05:54:06.094Z,0.2
2023-03-11T05:55:06.503Z,0.2
2023-03-11T05:56:06.641Z,0.2
2023-03-11T05:57:06.964Z,0.2
2023-03-11T05:58:06.340Z,0.2
2023-03-11T05:59:06.528Z,0.2
2023-03-11T06:00:06.693Z,0
2023-03-11T06:01:06.125Z,0.2
2023-03-11T06:02:06.583Z,0.2
2023-03-11T06:03:06.840Z,0.1
2023-03-11T06:04:06.474Z,0.2
2023-03-11T06:05:11.660Z,0.2
2023-03-11T06:06:06.616Z,0.2
2023-03-11T06:07:06.040Z,0.2
2023-03-11T06:08:06.110Z,0.2
2023-03-11T06:09:06.326Z,0.2
2023-03-11T06:10:06.854Z,0.2
2023-03-11T06:11:06.111Z,0.2
2023-03-11T06:12:06.229Z,0.2
2023-03-11T06:13:06.146Z,0.2
2023-03-11T06:14:06.491Z,0.2
2023-03-11T06:15:06.830Z,0.3
2023-03-11T06:16:06.349Z,0.2
2023-03-11T06:17:06.226Z,0.3
2023-03-11T06:18:06.698Z,0.3
2023-03-11T06:19:05.757Z,0.4
2023-03-11T06:20:06.070Z,0.3
2023-03-11T06:21:06.500Z,0.4
2023-03-11T06:22:06.683Z,0.4
2023-03-11T06:23:05.799Z,0.4
2023-03-11T06:24:06.141Z,0.4
2023-03-11T06:25:06.612Z,0.4
2023-03-11T06:26:06.115Z,0.4
2023-03-11T06:27:06.403Z,0.4
2023-03-11T06:28:06.613Z,0.4
2023-03-11T06:29:05.687Z,0
2023-03-11T06:30:06.495Z,0.4
2023-03-11T06:31:06.693Z,0.4
2023-03-11T06:32:06.078Z,0.4
2023-03-11T06:33:06.110Z,0.4
2023-03-11T06:34:06.416Z,0.4
2023-03-11T06:35:06.724Z,0
2023-03-11T06:36:06.258Z,0.4
2023-03-11T06:37:06.317Z,0.4
2023-03-11T06:38:06.643Z,0.4
2023-03-11T06:39:05.774Z,0.4
2023-03-11T06:40:05.952Z,0.4
2023-03-11T06:41:06.110Z,0.5
2023-03-11T06:42:06.315Z,0.5
2023-03-11T06:43:06.753Z,0.5
2023-03-11T06:44:06.109Z,0.5
2023-03-11T06:45:06.499Z,0.5
2023-03-11T06:46:06.610Z,0.5
2023-03-11T06:47:06.760Z,0.5
2023-03-11T06:48:06.051Z,0.6
2023-03-11T06:49:06.354Z,0.6
2023-03-11T06:50:06.705Z,0.6
2023-03-11T06:51:05.911Z,0.6
2023-03-11T06:52:06.274Z,0.6
2023-03-11T06:53:06.540Z,0.6
2023-03-11T06:54:05.842Z,0.6
2023-03-11T06:55:06.066Z,0.6
2023-03-11T06:56:06.482Z,0
2023-03-11T06:57:06.783Z,0.7
2023-03-11T06:58:05.968Z,0.7
2023-03-11T06:59:06.455Z,0
2023-03-11T07:00:05.730Z,0.7
2023-03-11T07:01:06.232Z,0
2023-03-11T07:02:06.393Z,0.7
2023-03-11T07:03:06.336Z,0.8
2023-03-11T07:04:06.982Z,0.8
2023-03-11T07:05:06.156Z,0.8
2023-03-11T07:06:08.751Z,0
2023-03-11T07:07:06.689Z,0.8
2023-03-11T07:08:06.033Z,0.8
2023-03-11T07:09:06.370Z,0.8
2023-03-11T07:10:06.562Z,0.9
2023-03-11T07:11:06.400Z,0.9
2023-03-11T07:12:08.747Z,1
2023-03-11T07:13:05.839Z,0
2023-03-11T07:14:05.852Z,1.1
2023-03-11T07:15:06.418Z,1.1
2023-03-11T07:16:05.793Z,1.2
2023-03-11T07:17:06.542Z,1.2
2023-03-11T07:18:06.740Z,1.3
2023-03-11T07:19:05.869Z,1.3
2023-03-11T07:20:06.099Z,1.4
2023-03-11T07:21:06.416Z,1.4
2023-03-11T07:22:06.543Z,1
2023-03-11T07:23:06.113Z,1.5
2023-03-11T07:24:06.273Z,1.6
2023-03-11T07:25:06.733Z,1.6
2023-03-11T07:26:06.166Z,1.6
2023-03-11T07:27:06.566Z,1.6
2023-03-11T07:28:06.713Z,1.7
2023-03-11T07:29:05.882Z,1.8
2023-03-11T07:30:06.399Z,1.8
2023-03-11T07:31:06.103Z,1.8
2023-03-11T07:32:06.617Z,1.9
2023-03-11T07:33:06.677Z,1.9
2023-03-11T07:34:06.017Z,2
2023-03-11T07:35:06.198Z,2
2023-03-11T07:36:06.038Z,2
2023-03-11T07:37:06.242Z,2.1
2023-03-11T07:38:06.545Z,2
2023-03-11T07:39:08.536Z,2.1
2023-03-11T07:40:06.027Z,2.1
2023-03-11T07:41:06.237Z,2.1
2023-03-11T07:42:06.552Z,2.1
2023-03-11T07:43:06.767Z,2.2
2023-03-11T07:44:06.169Z,2.2
2023-03-11T07:45:06.050Z,2.3
2023-03-11T07:46:06.801Z,2.3
2023-03-11T07:47:06.622Z,1
2023-03-11T07:48:05.677Z,2.4
2023-03-11T07:49:06.098Z,2.4
2023-03-11T07:50:06.342Z,2.5
2023-03-11T07:51:06.732Z,2.4
2023-03-11T07:52:06.030Z,2.4
2023-03-11T07:53:06.293Z,2.5
2023-03-11T07:54:06.547Z,2.5
2023-03-11T07:55:06.610Z,2.5
2023-03-11T07:56:06.274Z,2.6
2023-03-11T07:57:06.330Z,2.6
2023-03-11T07:58:06.840Z,2.6
2023-03-11T07:59:06.084Z,2.7
2023-03-11T08:00:06.240Z,2.7
2023-03-11T08:01:06.649Z,2.8
2023-03-11T08:02:05.896Z,2
2023-03-11T08:03:06.218Z,2
2023-03-11T08:04:06.606Z,2.8
2023-03-11T08:05:06.886Z,2.8
2023-03-11T08:06:06.041Z,2.9
2023-03-11T08:07:06.246Z,2.9
2023-03-11T08:08:06.415Z,2.9
2023-03-11T08:09:05.759Z,2.9
2023-03-11T08:10:06.036Z,3
2023-03-11T08:11:06.420Z,3
2023-03-11T08:12:06.549Z,3
2023-03-11T08:13:05.904Z,3
2023-03-11T08:14:06.078Z,3.1
2023-03-11T08:15:06.271Z,3.2
2023-03-11T08:16:05.936Z,3.2
2023-03-11T08:17:06.545Z,3.2
2023-03-11T08:18:06.827Z,2
2023-03-11T08:19:06.019Z,3.2
2023-03-11T08:20:06.154Z,3.2
2023-03-11T08:21:05.969Z,2
2023-03-11T08:22:06.502Z,3.3
2023-03-11T08:23:06.319Z,3.3
2023-03-11T08:24:07.687Z,3.4
2023-03-11T08:25:06.244Z,3.4
2023-03-11T08:26:06.728Z,3.6
2023-03-11T08:27:05.791Z,3.6
2023-03-11T08:28:06.044Z,3.8
2023-03-11T08:29:06.307Z,3.8
2023-03-11T08:30:06.882Z,3.9
2023-03-11T08:31:06.277Z,3.9
2023-03-11T08:32:06.303Z,4
2023-03-11T08:33:06.096Z,3
2023-03-11T08:34:06.541Z,3.8
2023-03-11T08:35:06.752Z,3.8
2023-03-11T08:36:06.258Z,3.8
2023-03-11T08:37:06.320Z,3.6
2023-03-11T08:38:06.473Z,2
2023-03-11T08:39:06.027Z,3.5
2023-03-11T08:40:06.416Z,3.4
2023-03-11T08:41:06.231Z,3.5
2023-03-11T08:42:06.069Z,3.6
2023-03-11T08:43:06.174Z,3.7
2023-03-11T08:44:06.575Z,3.8
2023-03-11T08:45:06.639Z,3.9
2023-03-11T08:46:06.121Z,3.9
2023-03-11T08:47:06.073Z,3.9
2023-03-11T08:48:06.262Z,4
2023-03-11T08:49:06.594Z,4.1
2023-03-11T08:50:06.773Z,4
2023-03-11T08:51:06.365Z,4.1
2023-03-11T08:52:06.489Z,4
2023-03-11T08:53:05.764Z,4
2023-03-11T08:54:06.331Z,4
2023-03-11T08:55:06.690Z,4
2023-03-11T08:56:05.907Z,4
2023-03-11T08:57:06.452Z,4
2023-03-11T08:58:06.476Z,3.9
2023-03-11T08:59:05.799Z,3.9
2023-03-11T09:00:06.161Z,4
2023-03-11T09:01:06.347Z,4
2023-03-11T09:02:06.621Z,4
2023-03-11T09:03:06.928Z,4
2023-03-11T09:04:05.766Z,4.2
2023-03-11T09:05:06.453Z,4.2
2023-03-11T09:06:06.428Z,4.2
2023-03-11T09:07:05.778Z,4.2
2023-03-11T09:08:08.548Z,2
2023-03-11T09:09:06.353Z,4.2
2023-03-11T09:10:06.597Z,4
2023-03-11T09:11:05.973Z,4
2023-03-11T09:12:06.076Z,4
2023-03-11T09:13:06.400Z,4.1
2023-03-11T09:14:06.752Z,4.2
2023-03-11T09:15:05.982Z,4.3
2023-03-11T09:16:06.473Z,4.6
2023-03-11T09:17:06.689Z,4.7
2023-03-11T09:18:05.935Z,4.8
2023-03-11T09:19:06.363Z,4.9
2023-03-11T09:20:06.331Z,4.8
2023-03-11T09:21:05.900Z,4.8
2023-03-11T09:22:06.094Z,4.9
2023-03-11T09:23:06.271Z,4.9
2023-03-11T09:24:06.432Z,4.9
2023-03-11T09:25:06.629Z,4.9
2023-03-11T09:26:06.595Z,4.9
2023-03-11T09:27:06.811Z,3
2023-03-11T09:28:05.856Z,5
2023-03-11T09:29:06.123Z,5
2023-03-11T09:30:06.677Z,5
2023-03-11T09:31:06.106Z,4.9
2023-03-11T09:32:06.199Z,4.8
2023-03-11T09:33:06.341Z,4.8
2023-03-11T09:34:06.559Z,4.8
2023-03-11T09:35:05.992Z,4.7
2023-03-11T09:36:06.453Z,4.6
2023-03-11T09:37:06.424Z,4.6
2023-03-11T09:38:05.793Z,4.4
2023-03-11T09:39:06.174Z,4.5
2023-03-11T09:40:06.296Z,4.5
2023-03-11T09:41:06.671Z,4.4
2023-03-11T09:42:06.009Z,4.5
2023-03-11T09:43:06.183Z,4.6
2023-03-11T09:44:06.788Z,4.5
2023-03-11T09:45:06.285Z,4.6
2023-03-11T09:46:06.397Z,4.5
2023-03-11T09:47:06.208Z,4.5
2023-03-11T09:48:06.057Z,4.5
2023-03-11T09:49:06.146Z,4.4
2023-03-11T09:50:06.569Z,4.3
2023-03-11T09:51:05.877Z,4.3
2023-03-11T09:52:06.086Z,4.3
2023-03-11T09:53:06.384Z,4.3
2023-03-11T09:54:06.582Z,4.2
2023-03-11T09:55:05.847Z,4.2
2023-03-11T09:56:06.156Z,4.1
2023-03-11T09:57:06.409Z,4.1
2023-03-11T09:58:06.533Z,4.1
2023-03-11T09:59:06.018Z,4.1
2023-03-11T10:00:06.311Z,4.1
2023-03-11T10:01:06.547Z,4.1
2023-03-11T10:02:05.956Z,4
2023-03-11T10:03:06.334Z,4
2023-03-11T10:04:06.135Z,4
2023-03-11T10:05:06.642Z,4
2023-03-11T10:06:05.822Z,4
2023-03-11T10:07:06.268Z,2
2023-03-11T10:08:06.383Z,4
2023-03-11T10:09:06.575Z,3.9
2023-03-11T10:10:05.909Z,3.9
2023-03-11T10:11:06.400Z,3.9
2023-03-11T10:12:06.506Z,3.8
2023-03-11T10:13:05.967Z,3.8
2023-03-11T10:14:06.376Z,3.7
2023-03-11T10:15:06.497Z,3.7
2023-03-11T10:16:05.725Z,3.7
2023-03-11T10:17:06.094Z,3.7
2023-03-11T10:18:06.593Z,3.7
2023-03-11T10:19:06.736Z,2
2023-03-11T10:20:06.163Z,3.7
2023-03-11T10:21:06.367Z,3.8
2023-03-11T10:22:06.583Z,3.7
2023-03-11T10:23:05.792Z,3.8
2023-03-11T10:24:06.100Z,3.8
2023-03-11T10:25:06.449Z,3.8
2023-03-11T10:26:05.760Z,2
2023-03-11T10:27:06.007Z,3.9
2023-03-11T10:28:06.190Z,3.9
2023-03-11T10:29:06.373Z,3.9
2023-03-11T10:30:06.893Z,4
2023-03-11T10:31:05.940Z,4
2023-03-11T10:32:06.374Z,4
2023-03-11T10:33:06.524Z,2
2023-03-11T10:34:05.929Z,4
2023-03-11T10:35:06.374Z,4
2023-03-11T10:36:06.706Z,4
2023-03-11T10:37:06.587Z,4.1
2023-03-11T10:38:05.797Z,4.1
2023-03-11T10:39:06.342Z,4.1
2023-03-11T10:40:06.613Z,4.1
2023-03-11T10:41:06.258Z,4.1
2023-03-11T10:42:06.584Z,4.2
2023-03-11T10:43:06.864Z,3
2023-03-11T10:44:05.796Z,4.3
2023-03-11T10:45:05.939Z,4.3
2023-03-11T10:46:06.805Z,4.2
2023-03-11T10:47:06.796Z,4.3
2023-03-11T10:48:05.648Z,4.4
2023-03-11T10:49:06.211Z,4.6
2023-03-11T10:50:06.445Z,4.8
2023-03-11T10:51:05.846Z,5.1
2023-03-11T10:52:05.996Z,5.2
2023-03-11T10:53:06.156Z,5.5
2023-03-11T10:54:06.323Z,5.7
2023-03-11T10:55:06.657Z,5.9
2023-03-11T10:56:05.703Z,6
2023-03-11T10:57:06.243Z,6.1
2023-03-11T10:58:06.384Z,6.3
2023-03-11T10:59:06.549Z,6.4
2023-03-11T11:00:05.832Z,6.6
2023-03-11T11:01:06.340Z,6.7
2023-03-11T11:02:06.509Z,6.8
2023-03-11T11:03:05.819Z,7
2023-03-11T11:04:06.333Z,6.9
2023-03-11T11:05:06.213Z,6.9
2023-03-11T11:06:06.675Z,4
2023-03-11T11:07:05.880Z,6.8
2023-03-11T11:08:06.002Z,6.6
2023-03-11T11:09:06.416Z,6.3
2023-03-11T11:10:06.674Z,6.3
2023-03-11T11:11:05.802Z,6.1
2023-03-11T11:12:06.087Z,5.9
2023-03-11T11:13:06.356Z,5.8
2023-03-11T11:14:06.603Z,5.8
2023-03-11T11:15:05.951Z,5.6
2023-03-11T11:16:05.897Z,5.6
2023-03-11T11:17:06.329Z,5.5
2023-03-11T11:18:06.497Z,5.5
2023-03-11T11:19:06.593Z,5.5
2023-03-11T11:20:05.975Z,5.5
2023-03-11T11:21:06.408Z,5.4
2023-03-11T11:22:06.679Z,5.4
2023-03-11T11:23:05.664Z,5.4
2023-03-11T11:24:05.835Z,5.4
2023-03-11T11:25:06.511Z,5.3
2023-03-11T11:26:06.778Z,5.2
2023-03-11T11:27:05.970Z,5.1
2023-03-11T11:28:06.395Z,5.1
2023-03-11T11:29:08.773Z,4.9
2023-03-11T11:30:05.954Z,3
2023-03-11T11:31:06.205Z,4.8
2023-03-11T11:32:06.390Z,4.9
2023-03-11T11:33:06.606Z,4.9
2023-03-11T11:34:05.846Z,4.9
2023-03-11T11:35:06.072Z,4.9
2023-03-11T11:36:06.321Z,4.9
2023-03-11T11:37:06.558Z,5
2023-03-11T11:38:05.834Z,5
2023-03-11T11:39:06.063Z,5
2023-03-11T11:40:05.957Z,5
2023-03-11T11:41:06.600Z,5
2023-03-11T11:42:06.754Z,5.1
2023-03-11T11:43:05.949Z,5.1
2023-03-11T11:44:06.252Z,5
2023-03-11T11:45:05.900Z,5
2023-03-11T11:46:06.486Z,5
2023-03-11T11:47:08.619Z,5
2023-03-11T11:48:06.041Z,5
2023-03-11T11:49:06.052Z,5
2023-03-11T11:50:06.290Z,5
2023-03-11T11:51:05.837Z,5
2023-03-11T11:52:06.090Z,4.9
2023-03-11T11:53:06.255Z,4.9
2023-03-11T11:54:06.533Z,4.8
2023-03-11T11:55:06.229Z,4.8
2023-03-11T11:56:06.245Z,3
2023-03-11T11:57:06.600Z,4.7
2023-03-11T11:58:05.669Z,4.7
2023-03-11T11:59:05.953Z,4.6
2023-03-11T12:00:06.906Z,3
2023-03-11T12:01:05.943Z,4.6
2023-03-11T12:02:06.254Z,4.6
2023-03-11T12:03:06.329Z,4.6
2023-03-11T12:04:06.700Z,4.6
2023-03-11T12:05:06.014Z,3
2023-03-11T12:06:06.640Z,4.6
2023-03-11T12:07:06.444Z,4.5
2023-03-11T12:08:05.762Z,4.5
2023-03-11T12:09:05.922Z,4.5
2023-03-11T12:10:25.391Z,4.5
2023-03-11T12:11:06.284Z,4.6
2023-03-11T12:12:06.261Z,4.6
2023-03-11T12:13:06.544Z,4.6
2023-03-11T12:14:05.904Z,4.6
2023-03-11T12:15:06.319Z,4.7
2023-03-11T12:16:06.460Z,4.6
2023-03-11T12:17:08.356Z,4.6
2023-03-11T12:18:05.780Z,4.6
2023-03-11T12:19:06.196Z,4.6
2023-03-11T12:20:06.684Z,4.5
2023-03-11T12:21:06.190Z,4.4
2023-03-11T12:22:05.649Z,4.5
2023-03-11T12:23:05.770Z,4.5
2023-03-11T12:24:06.366Z,4.5
2023-03-11T12:25:06.528Z,4.5
2023-03-11T12:26:06.145Z,4.4
2023-03-11T12:27:06.623Z,4.4
2023-03-11T12:28:05.930Z,4.4
2023-03-11T12:29:06.027Z,4.4
2023-03-11T12:30:06.275Z,4.5
2023-03-11T12:31:06.351Z,4.6
2023-03-11T12:32:06.443Z,4.7
2023-03-11T12:33:06.872Z,4.7
2023-03-11T12:34:05.768Z,4.7
2023-03-11T12:35:06.136Z,4.8
2023-03-11T12:36:06.470Z,4.7
2023-03-11T12:37:06.646Z,4.6
2023-03-11T12:38:06.003Z,4.6
2023-03-11T12:39:06.060Z,4.6
2023-03-11T12:40:06.514Z,3
2023-03-11T12:41:05.876Z,4.7
2023-03-11T12:42:05.788Z,4.6
2023-03-11T12:43:06.486Z,4.6
2023-03-11T12:44:06.812Z,4.6
2023-03-11T12:45:05.930Z,4.7
2023-03-11T12:46:06.098Z,4.7
2023-03-11T12:47:06.827Z,4.8
2023-03-11T12:48:06.136Z,3
2023-03-11T12:49:06.290Z,4.7
2023-03-11T12:50:06.516Z,4.8
2023-03-11T12:51:06.724Z,4.8
2023-03-11T12:52:06.014Z,3
2023-03-11T12:53:06.334Z,3
2023-03-11T12:54:06.575Z,3
2023-03-11T12:55:05.827Z,4.8
2023-03-11T12:56:06.321Z,4.7
2023-03-11T12:57:06.688Z,4.7
2023-03-11T12:58:06.835Z,4.7
2023-03-11T12:59:06.001Z,4.7
2023-03-11T13:00:06.253Z,4.7
2023-03-11T13:01:06.569Z,4.8
2023-03-11T13:02:06.231Z,4.8
2023-03-11T13:03:06.385Z,4.8
2023-03-11T13:04:06.634Z,4.8
2023-03-11T13:05:05.952Z,4.9
2023-03-11T13:06:06.098Z,4.9
2023-03-11T13:07:06.284Z,5
2023-03-11T13:08:06.492Z,5.1
2023-03-11T13:09:06.815Z,5.1
2023-03-11T13:10:05.915Z,5.2
2023-03-11T13:11:06.568Z,5.1
2023-03-11T13:12:06.647Z,5.2
2023-03-11T13:13:05.922Z,5.2
2023-03-11T13:14:06.353Z,5.2
2023-03-11T13:15:06.909Z,4
2023-03-11T13:16:06.747Z,5.2
2023-03-11T13:17:06.002Z,5.2
2023-03-11T13:18:06.180Z,5.2
2023-03-11T13:19:06.437Z,5.2
2023-03-11T13:20:06.672Z,5.1
2023-03-11T13:21:06.340Z,5.2
2023-03-11T13:22:06.627Z,5.1
2023-03-11T13:23:05.876Z,5.2
2023-03-11T13:24:06.172Z,5.2
2023-03-11T13:25:06.342Z,5.2
2023-03-11T13:26:06.582Z,5.1
2023-03-11T13:27:08.671Z,5.2
2023-03-11T13:28:06.320Z,5.1
2023-03-11T13:29:06.695Z,5.2
2023-03-11T13:30:05.995Z,5.2
2023-03-11T13:31:06.552Z,5.1
2023-03-11T13:32:06.645Z,5.1
2023-03-11T13:33:05.882Z,5.1
2023-03-11T13:34:06.072Z,5.2
2023-03-11T13:35:06.438Z,5.2
2023-03-11T13:36:06.442Z,5.2
2023-03-11T13:37:06.661Z,5.3
2023-03-11T13:38:05.908Z,5.4
2023-03-11T13:39:05.986Z,4
2023-03-11T13:40:06.537Z,5.5
2023-03-11T13:41:06.715Z,5.6
2023-03-11T13:42:06.106Z,5.6
2023-03-11T13:43:08.161Z,5.7
2023-03-11T13:44:06.415Z,5.8
2023-03-11T13:45:06.779Z,5.9
2023-03-11T13:46:06.164Z,5.9
2023-03-11T13:47:06.365Z,6
2023-03-11T13:48:06.864Z,6
2023-03-11T13:49:06.123Z,6
2023-03-11T13:50:06.275Z,6
2023-03-11T13:51:06.710Z,6.2
2023-03-11T13:52:05.893Z,6.2
2023-03-11T13:53:06.201Z,6.2
2023-03-11T13:54:06.887Z,6.2
2023-03-11T13:55:06.072Z,6.3
2023-03-11T13:56:06.498Z,6.2
2023-03-11T13:57:06.404Z,6.2
2023-03-11T13:58:05.759Z,6.2
2023-03-11T13:59:06.179Z,6.2
2023-03-11T14:00:06.356Z,6.2
2023-03-11T14:01:06.968Z,6.1
2023-03-11T14:02:05.981Z,6